Pagrindinis puslapis
METAR-TAF:

METAR-TAF

Oro uostai :

Tel Avivas-Ben Gurion, Izraelis

platuma: 32-00N, ilguma: 034-54E, Aukštis: 40 m

Dabartinis oras

Ataskaita buvo paskelbta 25 minutes, ne 09:50 UTC
Vėjas 7 kt iš Šiaurės/Šiaurės Vakarų, svyruoja nuo Vakarų/Šiaurės Vakarų ir Šiaurės/Šiaurės Rytų
Temperatūra 27°C
Drėgmė 51%
Slėgis 1016 hPa
Matomumas 10 km arba daugiau
nėra debesų žemiau 1500 m ir nėra kamuolinių lietaus debesų

METAR: LLBG 270950Z 34007KT 290V020 CAVOK 27/16 Q1016 NOSIG

Laikas: 13:15 (10:15 UTC)

Prognozė

Ataskaita buvo paskelbta 5 valandos ir 11 minutes, ne 05:04 UTC
Prognozė galioja nuo 27 metu 06 UTC su 28 metu 06 UTC
Vėjas 3 kt nuo kintamojo kryptimis
Matomumas 10 km arba daugiau
nėra debesų žemiau 1500 m ir nėra kamuolinių lietaus debesų
Tapsmas
nuo 27 metu 07 UTC su 27 metu 09 UTC
Vėjas 10 kt iš Šiaurės Vakarų
Tapsmas
nuo 27 metu 16 UTC su 27 metu 18 UTC
Vėjas 3 kt nuo kintamojo kryptimis

TAF: LLBG 270504Z 2706/2806 VRB03KT CAVOK BECMG 2707/2709 32010KT BECMG 2716/2718 VRB03KT TX27/2710Z TN17/2804Z

Orai ataskaitas ir orų prognozės (METAR, TAF).

turimą stotys yra geltonos ir raudonos taškus žemėlapyje.

Perkelti pele per norėdami pamatyti stoties vardą.

Tada spustelėkite, norėdami matyti oro stebėjimo ir prognozės.

Norėdami pakeisti žemėlapį: spustelėkite ant žalios mygtukų su juodo kryžiaus žemyn,; žalią mygtuką su brūkšneliu, jei norite nutolinti; arba žalių rodyklių gretimoms žemėlapius.


METAR-TAF: